Time;durP1;ratioP1;P1;durP2;ratioP2;P2;SDS_P1;SDS_P2;PMS_P1;PMS_P2;Temp;Humidity;BMP_temperature;BMP_pressure;BME280_temperature;BME280_humidity;BME280_pressure;Samples;Min_cycle;Max_cycle;Signal;HPM_P1;HPM_P2
2022/05/30 00:01:25;;;;;;;3.10;2.10;;;11.00;97.30;;;;;;5076452;28;20163;-82
2022/05/30 00:03:51;;;;;;;2.63;2.10;;;10.90;97.30;;;;;;5077516;28;20168;-81
2022/05/30 00:06:19;;;;;;;3.23;2.30;;;10.90;97.30;;;;;;5077853;28;20753;-82
2022/05/30 00:08:45;;;;;;;2.33;2.10;;;10.90;97.30;;;;;;5076229;28;20418;-83
2022/05/30 00:11:13;;;;;;;3.47;2.20;;;10.90;97.30;;;;;;5076117;28;20420;-84
2022/05/30 00:13:40;;;;;;;3.90;2.37;;;10.80;97.30;;;;;;5075732;28;20418;-83
2022/05/30 00:16:08;;;;;;;2.80;2.10;;;10.80;97.30;;;;;;5076261;28;20473;-83
2022/05/30 00:18:34;;;;;;;4.63;2.40;;;10.80;97.30;;;;;;5076180;28;20496;-83
2022/05/30 00:20:59;;;;;;;4.50;2.87;;;10.80;97.30;;;;;;5076204;28;20429;-83
2022/05/30 00:23:25;;;;;;;5.33;2.87;;;10.80;97.30;;;;;;5076897;28;20499;-84
2022/05/30 00:25:51;;;;;;;5.13;2.33;;;10.90;97.30;;;;;;5075898;28;20191;-83
2022/05/30 00:28:20;;;;;;;3.50;2.50;;;10.80;97.30;;;;;;5077010;28;20420;-83
2022/05/30 00:30:46;;;;;;;3.60;2.80;;;10.90;97.30;;;;;;5077325;28;20178;-83
2022/05/30 00:33:13;;;;;;;4.90;3.03;;;10.90;97.30;;;;;;5076006;28;20433;-84
2022/05/30 00:35:39;;;;;;;4.30;3.00;;;10.90;97.30;;;;;;5075513;28;20855;-83
2022/05/30 00:38:06;;;;;;;3.17;2.70;;;10.90;97.30;;;;;;5090612;28;20694;-84
2022/05/30 00:40:32;;;;;;;9.83;3.10;;;10.90;97.30;;;;;;5095500;28;20446;-84
2022/05/30 00:43:30;;;;;;;5.03;2.73;;;10.90;97.30;;;;;;5095751;28;20508;-83
2022/05/30 00:45:58;;;;;;;3.07;2.43;;;10.80;97.30;;;;;;5095342;28;20432;-84
2022/05/30 00:48:30;;;;;;;4.07;3.00;;;10.80;97.30;;;;;;5095818;28;20420;-84
2022/05/30 00:51:01;;;;;;;3.93;2.83;;;10.80;97.30;;;;;;5094858;28;20453;-84
2022/05/30 00:53:28;;;;;;;5.13;3.17;;;10.80;97.30;;;;;;5095229;28;20417;-84
2022/05/30 00:55:54;;;;;;;3.60;2.33;;;10.70;97.30;;;;;;5095314;28;20545;-84
2022/05/30 00:58:22;;;;;;;5.40;2.90;;;10.70;97.30;;;;;;5095984;28;20484;-83
2022/05/30 01:00:48;;;;;;;5.33;3.07;;;10.70;97.30;;;;;;5095240;28;20772;-83
2022/05/30 01:08:42;;;;;;;6.93;2.97;;;10.60;97.30;;;;;;5097548;28;20461;-83
2022/05/30 01:11:08;;;;;;;4.37;3.23;;;10.60;97.30;;;;;;5095911;28;20433;-83
2022/05/30 01:13:33;;;;;;;5.50;2.53;;;10.60;97.30;;;;;;5095761;28;20432;-83
2022/05/30 01:15:59;;;;;;;4.80;3.60;;;10.50;97.30;;;;;;5095615;28;20234;-83
2022/05/30 01:18:33;;;;;;;5.30;3.10;;;10.50;97.30;;;;;;5096526;28;20179;-83
2022/05/30 01:21:16;;;;;;;6.07;3.70;;;10.50;97.30;;;;;;5095520;28;20781;-83
2022/05/30 01:23:58;;;;;;;5.30;3.13;;;10.50;97.30;;;;;;5095470;28;21001;-83
2022/05/30 01:26:46;;;;;;;4.50;3.40;;;10.50;97.30;;;;;;5095516;28;20524;-84
2022/05/30 01:29:16;;;;;;;5.97;3.13;;;10.50;97.30;;;;;;5095708;28;20412;-83
2022/05/30 01:31:42;;;;;;;4.57;3.20;;;10.50;97.30;;;;;;5095174;28;20407;-83
2022/05/30 01:34:08;;;;;;;4.10;2.97;;;10.50;97.30;;;;;;5094685;28;20412;-83
2022/05/30 01:36:34;;;;;;;4.80;3.10;;;10.50;97.30;;;;;;5092418;28;20468;-83
2022/05/30 01:39:01;;;;;;;6.40;3.10;;;10.50;97.30;;;;;;5076329;28;20920;-84
2022/05/30 01:41:27;;;;;;;6.90;3.20;;;10.50;97.30;;;;;;5076981;28;20870;-83
2022/05/30 01:43:53;;;;;;;5.73;2.80;;;10.50;97.30;;;;;;5075492;28;20409;-83
2022/05/30 01:46:21;;;;;;;5.50;3.17;;;10.50;97.30;;;;;;5075160;28;20494;-83
2022/05/30 01:48:48;;;;;;;4.80;3.20;;;10.50;97.30;;;;;;5074708;28;20413;-83
2022/05/30 01:51:16;;;;;;;10.30;3.20;;;10.50;97.30;;;;;;5075286;28;20421;-83
2022/05/30 01:53:42;;;;;;;5.43;3.00;;;10.50;97.30;;;;;;5074503;28;20421;-81
2022/05/30 01:56:08;;;;;;;6.10;3.33;;;10.50;97.30;;;;;;5074692;28;20978;-81
2022/05/30 01:58:34;;;;;;;4.23;2.90;;;10.50;97.30;;;;;;5075040;28;20191;-80
2022/05/30 02:01:18;;;;;;;6.70;2.83;;;10.50;97.30;;;;;;5075069;28;21099;-81
2022/05/30 02:03:49;;;;;;;5.37;3.10;;;10.50;97.30;;;;;;5074943;28;20433;-81
2022/05/30 02:06:16;;;;;;;6.97;3.00;;;10.40;97.30;;;;;;5075481;28;20809;-81
2022/05/30 02:08:42;;;;;;;7.93;3.60;;;10.40;97.30;;;;;;5075602;28;20413;-80
2022/05/30 02:11:10;;;;;;;5.20;3.20;;;10.50;97.30;;;;;;5075821;28;20755;-81
2022/05/30 02:13:37;;;;;;;5.20;3.30;;;10.50;97.30;;;;;;5075413;28;20424;-81
2022/05/30 02:18:49;;;;;;;7.63;3.93;;;10.50;97.30;;;;;;5076262;28;20416;-81
2022/05/30 02:21:15;;;;;;;5.80;3.80;;;10.50;97.30;;;;;;5075400;28;20409;-81
2022/05/30 02:23:41;;;;;;;5.33;3.67;;;10.50;97.30;;;;;;5075632;28;20174;-80
2022/05/30 02:26:06;;;;;;;9.30;3.80;;;10.50;97.30;;;;;;5074814;28;20198;-81
2022/05/30 02:28:32;;;;;;;4.70;3.20;;;10.50;97.30;;;;;;5075382;28;20189;-81
2022/05/30 02:30:57;;;;;;;7.13;3.30;;;10.50;97.30;;;;;;5075570;28;20179;-80
2022/05/30 02:38:51;;;;;;;6.73;4.13;;;10.50;97.30;;;;;;5076791;28;20385;-81
2022/05/30 02:41:20;;;;;;;7.10;4.10;;;10.40;97.30;;;;;;5074558;28;20406;-81
2022/05/30 02:43:46;;;;;;;6.23;4.20;;;10.50;97.30;;;;;;5074768;28;20262;-81
2022/05/30 02:46:12;;;;;;;7.27;4.30;;;10.50;97.30;;;;;;5074613;28;20519;-81
2022/05/30 02:48:38;;;;;;;13.20;4.80;;;10.40;97.30;;;;;;5074967;28;20479;-81
2022/05/30 02:51:03;;;;;;;9.23;4.93;;;10.40;97.30;;;;;;5074607;28;20281;-81
2022/05/30 02:53:29;;;;;;;9.93;5.17;;;10.50;97.30;;;;;;5075156;28;20585;-81
2022/05/30 02:55:54;;;;;;;11.60;5.07;;;10.50;97.30;;;;;;5074404;28;20207;-81
2022/05/30 02:58:20;;;;;;;13.13;6.30;;;10.40;97.30;;;;;;5076483;28;20167;-80
2022/05/30 03:00:46;;;;;;;8.10;4.87;;;10.40;97.30;;;;;;5074473;28;20176;-81
2022/05/30 03:03:11;;;;;;;6.97;4.30;;;10.50;97.30;;;;;;5076605;28;20171;-81
2022/05/30 03:05:40;;;;;;;7.20;4.13;;;10.50;97.30;;;;;;5074927;28;20191;-81
2022/05/30 03:08:07;;;;;;;8.43;5.13;;;10.50;97.30;;;;;;5074960;28;20171;-81
2022/05/30 03:10:33;;;;;;;8.23;5.00;;;10.50;97.30;;;;;;5074391;28;20939;-81
2022/05/30 03:12:58;;;;;;;9.47;4.97;;;10.50;97.30;;;;;;5075561;28;20504;-81
2022/05/30 03:15:25;;;;;;;8.40;5.40;;;10.40;97.30;;;;;;5076566;28;20452;-81
2022/05/30 03:17:51;;;;;;;13.17;5.23;;;10.40;97.30;;;;;;5079538;28;20570;-81
2022/05/30 03:20:18;;;;;;;10.20;5.30;;;10.40;97.30;;;;;;5078423;28;20918;-81
2022/05/30 03:22:43;;;;;;;11.70;5.70;;;10.40;97.30;;;;;;5078166;28;20405;-81
2022/05/30 03:25:10;;;;;;;7.90;4.87;;;10.40;97.30;;;;;;5078349;28;20417;-81
2022/05/30 03:27:36;;;;;;;14.40;5.87;;;10.40;97.30;;;;;;5078206;28;20224;-81
2022/05/30 03:30:02;;;;;;;10.97;5.67;;;10.40;97.30;;;;;;5077777;28;20520;-81
2022/05/30 03:32:28;;;;;;;14.40;5.90;;;10.40;97.30;;;;;;5078429;28;20179;-80
2022/05/30 03:34:53;;;;;;;9.40;5.60;;;10.40;97.30;;;;;;5078337;28;20417;-81
2022/05/30 03:37:19;;;;;;;13.40;6.70;;;10.40;97.30;;;;;;5083880;28;20238;-80
2022/05/30 03:39:44;;;;;;;14.53;5.97;;;10.40;97.30;;;;;;5096067;28;20175;-81
2022/05/30 03:42:13;;;;;;;12.37;6.10;;;10.40;97.30;;;;;;5095192;28;20172;-81
2022/05/30 03:44:39;;;;;;;10.47;6.07;;;10.40;97.30;;;;;;5096212;28;20175;-81
2022/05/30 03:47:05;;;;;;;14.23;6.70;;;10.50;97.30;;;;;;5079286;28;20437;-81
2022/05/30 03:49:31;;;;;;;9.63;5.93;;;10.40;97.30;;;;;;5095195;28;20417;-81
2022/05/30 03:51:58;;;;;;;18.67;7.57;;;10.40;97.30;;;;;;5095369;28;20583;-81
2022/05/30 03:54:24;;;;;;;16.00;6.97;;;10.50;97.30;;;;;;5095335;28;20185;-80
2022/05/30 03:56:49;;;;;;;13.07;7.20;;;10.50;97.30;;;;;;5094960;28;20556;-80
2022/05/30 03:59:15;;;;;;;14.67;7.70;;;10.50;97.30;;;;;;5094980;28;20179;-80
2022/05/30 04:01:41;;;;;;;14.90;7.10;;;10.50;97.30;;;;;;5095340;28;20194;-80
2022/05/30 04:04:06;;;;;;;20.70;7.60;;;10.50;97.30;;;;;;5095764;28;20183;-81
2022/05/30 04:06:32;;;;;;;22.03;7.53;;;10.50;97.30;;;;;;5080272;28;20527;-81
2022/05/30 04:08:58;;;;;;;13.20;6.93;;;10.50;97.30;;;;;;5079089;28;20187;-81
2022/05/30 04:11:23;;;;;;;18.43;7.70;;;10.50;97.30;;;;;;5078959;28;20295;-81
2022/05/30 04:13:49;;;;;;;15.47;7.33;;;10.50;97.30;;;;;;5094208;28;20189;-80
2022/05/30 04:16:15;;;;;;;15.83;8.47;;;10.50;97.30;;;;;;5093498;28;20915;-81
2022/05/30 04:18:42;;;;;;;18.30;9.10;;;10.60;97.30;;;;;;5094245;28;20203;-81
2022/05/30 04:21:09;;;;;;;18.43;9.37;;;10.60;97.30;;;;;;5094096;28;20417;-81
2022/05/30 04:23:35;;;;;;;18.43;9.87;;;10.60;97.30;;;;;;5094379;28;20505;-81
2022/05/30 04:26:04;;;;;;;22.60;10.50;;;10.70;97.30;;;;;;5093842;28;20445;-80
2022/05/30 04:28:30;;;;;;;26.77;10.70;;;10.70;97.30;;;;;;5093921;28;20413;-80
2022/05/30 04:30:55;;;;;;;20.03;9.97;;;10.70;97.30;;;;;;5094051;28;20416;-83
2022/05/30 04:33:21;;;;;;;21.67;10.47;;;10.70;97.30;;;;;;5094679;28;20217;-83
2022/05/30 04:35:47;;;;;;;21.10;11.77;;;10.70;97.30;;;;;;5097298;28;20255;-83
2022/05/30 04:38:12;;;;;;;23.47;10.23;;;10.80;97.30;;;;;;5096177;28;20189;-83
2022/05/30 04:40:38;;;;;;;32.63;14.00;;;10.70;97.30;;;;;;5096395;28;20178;-84
2022/05/30 04:43:04;;;;;;;28.03;11.67;;;10.80;97.30;;;;;;5103723;28;20187;-84
2022/05/30 04:45:29;;;;;;;21.90;11.30;;;10.80;97.30;;;;;;5101894;28;20171;-83
2022/05/30 04:47:55;;;;;;;33.63;14.17;;;10.80;97.30;;;;;;5098621;28;20174;-83
2022/05/30 04:50:20;;;;;;;30.27;13.87;;;10.80;97.30;;;;;;5098706;28;20174;-84
2022/05/30 04:52:46;;;;;;;32.20;14.10;;;10.80;97.30;;;;;;5098445;28;20225;-83
2022/05/30 04:55:15;;;;;;;28.50;13.63;;;10.80;97.30;;;;;;5098007;28;20485;-83
2022/05/30 04:57:51;;;;;;;26.50;13.07;;;10.80;97.30;;;;;;5099034;28;20464;-83
2022/05/30 05:00:23;;;;;;;28.47;12.10;;;10.80;97.30;;;;;;5100062;28;20408;-84
2022/05/30 05:02:52;;;;;;;31.57;12.40;;;10.80;97.30;;;;;;5099568;28;20425;-83
2022/05/30 05:05:17;;;;;;;21.87;11.30;;;10.80;97.30;;;;;;5100163;28;20458;-83
2022/05/30 05:08:00;;;;;;;20.10;10.33;;;10.80;97.30;;;;;;5099516;28;20420;-83
2022/05/30 05:10:44;;;;;;;21.03;9.90;;;10.80;97.30;;;;;;5099305;28;20178;-83
2022/05/30 05:13:10;;;;;;;20.20;10.43;;;10.80;97.30;;;;;;5100255;28;20424;-84
2022/05/30 05:15:36;;;;;;;19.43;10.43;;;10.80;97.30;;;;;;5100392;28;20541;-84
2022/05/30 05:18:02;;;;;;;24.80;10.57;;;10.80;97.30;;;;;;5099280;28;20182;-84
2022/05/30 05:20:28;;;;;;;19.10;9.93;;;10.80;97.30;;;;;;5099497;28;20177;-83
2022/05/30 05:22:53;;;;;;;23.40;11.40;;;10.80;97.30;;;;;;5099028;28;20444;-83
2022/05/30 05:25:19;;;;;;;21.53;10.80;;;10.90;97.30;;;;;;5099070;28;20174;-83
2022/05/30 05:27:48;;;;;;;21.30;9.20;;;10.90;97.30;;;;;;5098730;28;20599;-84
2022/05/30 05:30:13;;;;;;;20.73;10.37;;;11.00;97.30;;;;;;5098651;28;20415;-83
2022/05/30 05:32:39;;;;;;;15.57;8.30;;;11.00;97.30;;;;;;5099833;28;20511;-83
2022/05/30 05:35:06;;;;;;;20.47;10.63;;;11.00;97.30;;;;;;5098889;28;20193;-84
2022/05/30 05:37:33;;;;;;;23.83;9.30;;;11.00;97.30;;;;;;5097931;28;20221;-83
2022/05/30 05:39:59;;;;;;;21.40;9.47;;;11.00;97.30;;;;;;5099505;28;20462;-84
2022/05/30 05:42:25;;;;;;;19.60;8.30;;;11.00;97.30;;;;;;5098782;28;20682;-83
2022/05/30 05:44:50;;;;;;;19.03;8.13;;;11.00;97.30;;;;;;5099261;28;20200;-83
2022/05/30 05:47:16;;;;;;;21.37;7.17;;;11.00;97.30;;;;;;5098706;28;20212;-84
2022/05/30 05:49:41;;;;;;;16.70;6.33;;;10.90;97.30;;;;;;5099674;28;20666;-84
2022/05/30 05:52:07;;;;;;;12.63;7.13;;;10.90;97.30;;;;;;5099071;28;20179;-84
2022/05/30 05:54:33;;;;;;;17.90;6.63;;;10.90;97.30;;;;;;5100741;28;20181;-85
2022/05/30 05:56:58;;;;;;;14.90;8.40;;;10.90;97.30;;;;;;5098305;28;20241;-84
2022/05/30 05:59:24;;;;;;;18.93;8.50;;;10.90;97.30;;;;;;5098908;28;20182;-83
2022/05/30 06:01:50;;;;;;;14.03;5.70;;;10.90;97.30;;;;;;5098133;28;20265;-84
2022/05/30 06:04:16;;;;;;;12.93;6.27;;;10.90;97.30;;;;;;5098347;28;20178;-84
2022/05/30 06:06:43;;;;;;;14.13;6.77;;;11.00;97.30;;;;;;5097949;28;20451;-81
2022/05/30 06:09:09;;;;;;;13.37;6.77;;;11.00;97.30;;;;;;5098307;28;20412;-81
2022/05/30 06:11:35;;;;;;;17.67;6.77;;;11.00;97.30;;;;;;5097890;28;21055;-83
2022/05/30 06:14:00;;;;;;;13.37;7.20;;;11.00;97.30;;;;;;5098204;28;20425;-83
2022/05/30 06:16:32;;;;;;;14.23;7.40;;;11.00;97.30;;;;;;5098754;28;20494;-84
2022/05/30 06:19:01;;;;;;;16.70;7.97;;;11.00;97.30;;;;;;5098536;28;20174;-83
2022/05/30 06:21:29;;;;;;;16.30;8.93;;;11.00;97.30;;;;;;5098038;28;20439;-83
2022/05/30 06:23:56;;;;;;;20.83;10.07;;;11.00;97.30;;;;;;5098416;28;20416;-83
2022/05/30 06:26:22;;;;;;;30.20;10.40;;;11.10;97.30;;;;;;5098516;28;20487;-84
2022/05/30 06:28:49;;;;;;;24.33;10.10;;;11.10;97.30;;;;;;5098095;28;20424;-83
2022/05/30 06:31:18;;;;;;;16.60;8.57;;;11.10;97.30;;;;;;5097932;28;20424;-84
2022/05/30 06:33:44;;;;;;;18.63;9.07;;;11.10;97.30;;;;;;5098383;28;20454;-84
2022/05/30 06:36:12;;;;;;;17.00;8.70;;;11.10;97.30;;;;;;5097936;28;20467;-83
2022/05/30 06:38:39;;;;;;;16.57;8.30;;;11.10;97.30;;;;;;5098109;28;20208;-84
2022/05/30 06:41:19;;;;;;;16.40;7.83;;;11.10;97.30;;;;;;5099449;28;20496;-84
2022/05/30 06:43:45;;;;;;;15.23;7.50;;;11.10;97.30;;;;;;5100054;28;20421;-83
2022/05/30 06:46:13;;;;;;;14.93;7.20;;;11.10;97.30;;;;;;5098871;28;20456;-83
2022/05/30 06:48:39;;;;;;;16.73;8.97;;;11.10;97.30;;;;;;5099996;28;20415;-83
2022/05/30 06:51:08;;;;;;;15.47;8.10;;;11.20;97.30;;;;;;5102357;28;20518;-84
2022/05/30 06:53:33;;;;;;;16.73;7.83;;;11.20;97.30;;;;;;5102517;28;20960;-83
2022/05/30 06:56:00;;;;;;;15.20;7.73;;;11.20;97.30;;;;;;5102292;28;20562;-84
2022/05/30 06:58:26;;;;;;;15.87;8.70;;;11.20;97.30;;;;;;5102671;28;20713;-84
2022/05/30 07:00:52;;;;;;;14.37;7.60;;;11.20;97.30;;;;;;5101594;28;20470;-84
2022/05/30 07:03:18;;;;;;;18.60;8.03;;;11.30;97.30;;;;;;5102214;28;20543;-84
2022/05/30 07:05:45;;;;;;;15.70;8.57;;;11.30;97.30;;;;;;5101911;28;20207;-84
2022/05/30 07:08:12;;;;;;;19.90;8.07;;;11.30;97.30;;;;;;5101583;28;20179;-84
2022/05/30 07:10:39;;;;;;;20.73;8.57;;;11.40;97.30;;;;;;5100431;28;20435;-84
2022/05/30 07:13:06;;;;;;;18.10;7.60;;;11.40;97.30;;;;;;5100973;28;20420;-85
2022/05/30 07:15:35;;;;;;;13.80;8.13;;;11.50;97.30;;;;;;5100273;28;20521;-84
2022/05/30 07:18:07;;;;;;;12.67;7.77;;;11.50;97.30;;;;;;5101785;28;20440;-84
2022/05/30 07:20:33;;;;;;;22.57;8.33;;;11.60;97.30;;;;;;5102897;28;20408;-84
2022/05/30 07:22:58;;;;;;;19.13;7.60;;;11.60;97.30;;;;;;5102367;28;20422;-84
2022/05/30 07:25:24;;;;;;;8.90;6.83;;;11.70;97.30;;;;;;5101248;28;20178;-84
2022/05/30 07:27:49;;;;;;;19.30;7.77;;;11.70;97.30;;;;;;5101253;28;20265;-83
2022/05/30 07:30:16;;;;;;;17.60;6.30;;;11.80;97.30;;;;;;5102016;28;20194;-84
2022/05/30 07:32:41;;;;;;;17.33;6.27;;;11.80;97.30;;;;;;5100514;28;20170;-84
2022/05/30 07:35:07;;;;;;;12.73;5.80;;;11.80;97.30;;;;;;5101992;28;20910;-83
2022/05/30 07:37:33;;;;;;;11.10;5.30;;;11.90;97.30;;;;;;5090154;28;20667;-84
2022/05/30 07:39:59;;;;;;;20.27;6.83;;;11.90;97.30;;;;;;5081716;28;20190;-84
2022/05/30 07:42:24;;;;;;;11.33;5.23;;;12.00;97.30;;;;;;5080443;28;20429;-84
2022/05/30 07:44:50;;;;;;;11.63;5.77;;;12.00;97.30;;;;;;5081060;28;20637;-85
2022/05/30 07:47:17;;;;;;;10.77;4.80;;;12.00;97.30;;;;;;5082019;28;20195;-84
2022/05/30 07:49:44;;;;;;;17.60;5.00;;;12.00;97.30;;;;;;5080085;28;20171;-84
2022/05/30 07:52:09;;;;;;;8.47;4.97;;;12.00;97.30;;;;;;5078877;28;20532;-83
2022/05/30 07:54:35;;;;;;;8.03;3.87;;;11.90;97.30;;;;;;5079180;28;20442;-84
2022/05/30 07:57:04;;;;;;;6.80;3.70;;;11.90;97.30;;;;;;5099963;28;20214;-84
2022/05/30 07:59:30;;;;;;;7.33;4.10;;;11.90;97.30;;;;;;5100560;28;20569;-83
2022/05/30 08:01:59;;;;;;;8.00;4.67;;;11.90;97.30;;;;;;5100804;28;20463;-83
2022/05/30 08:04:25;;;;;;;18.77;5.40;;;11.90;97.30;;;;;;5101320;28;20186;-83
2022/05/30 08:06:51;;;;;;;8.17;4.47;;;11.90;97.30;;;;;;5101337;28;20440;-83
2022/05/30 08:09:17;;;;;;;11.17;5.10;;;12.00;97.30;;;;;;5100725;28;20185;-83
2022/05/30 08:11:43;;;;;;;9.97;5.33;;;12.00;97.30;;;;;;5100083;28;20459;-83
2022/05/30 08:14:10;;;;;;;6.70;4.37;;;12.00;97.30;;;;;;5101612;28;20416;-83
2022/05/30 08:16:37;;;;;;;11.83;4.60;;;12.00;97.30;;;;;;5099723;28;20476;-83
2022/05/30 08:19:05;;;;;;;12.17;4.47;;;12.00;97.30;;;;;;5100573;28;20496;-82
2022/05/30 08:21:30;;;;;;;10.90;4.67;;;12.10;97.30;;;;;;5101403;28;20420;-85
2022/05/30 08:23:56;;;;;;;5.83;4.13;;;12.10;97.30;;;;;;5100094;28;20535;-80
2022/05/30 08:26:21;;;;;;;12.27;3.90;;;12.20;97.30;;;;;;5098796;28;20194;-80
2022/05/30 08:28:47;;;;;;;11.00;4.90;;;12.20;97.30;;;;;;5097958;28;20645;-82
2022/05/30 08:31:13;;;;;;;11.90;3.70;;;12.30;97.30;;;;;;5096802;28;20220;-81
2022/05/30 08:33:38;;;;;;;4.93;3.10;;;12.30;97.30;;;;;;5095637;28;20716;-81
2022/05/30 08:36:09;;;;;;;10.67;3.63;;;12.40;97.30;;;;;;5096193;28;20206;-80
2022/05/30 08:38:37;;;;;;;6.60;3.80;;;12.40;97.30;;;;;;5091873;28;20182;-84
2022/05/30 08:43:51;;;;;;;14.30;4.10;;;12.50;97.30;;;;;;5093155;28;20496;-84
2022/05/30 08:46:23;;;;;;;15.73;4.00;;;12.50;97.30;;;;;;5106147;28;20823;-84
2022/05/30 08:49:16;;;;;;;10.63;4.20;;;12.50;97.30;;;;;;5107037;28;20526;-87
2022/05/30 08:51:50;;;;;;;7.70;3.40;;;12.50;97.30;;;;;;5111503;28;20507;-86
2022/05/30 08:54:45;;;;;;;6.13;2.33;;;12.60;97.30;;;;;;5111282;28;20472;-87
2022/05/30 08:57:26;;;;;;;10.23;2.97;;;12.50;97.30;;;;;;5111138;28;20874;-87
2022/05/30 09:00:13;;;;;;;4.40;2.80;;;12.50;97.30;;;;;;5111505;28;20604;-85
2022/05/30 09:02:45;;;;;;;11.73;3.93;;;12.60;97.30;;;;;;5111470;28;20492;-85
2022/05/30 09:05:28;;;;;;;9.90;4.00;;;12.70;97.30;;;;;;5111110;28;20422;-85
2022/05/30 09:07:57;;;;;;;13.00;3.40;;;12.70;97.30;;;;;;5111010;28;20412;-85
2022/05/30 09:10:29;;;;;;;12.30;3.70;;;12.80;97.30;;;;;;5111340;28;20414;-85
2022/05/30 09:13:05;;;;;;;8.17;4.37;;;12.80;97.30;;;;;;5111326;28;20507;-85
2022/05/30 09:15:36;;;;;;;12.50;4.83;;;12.90;97.30;;;;;;5111018;28;20498;-85
2022/05/30 09:18:45;;;;;;;10.00;4.57;;;13.00;97.30;;;;;;5110819;28;20443;-85
2022/05/30 09:21:16;;;;;;;15.17;3.93;;;13.10;97.30;;;;;;5100815;28;20515;-86
2022/05/30 09:23:42;;;;;;;9.20;3.50;;;13.20;97.30;;;;;;5110246;28;20754;-86
2022/05/30 09:26:26;;;;;;;9.93;3.70;;;13.30;97.30;;;;;;5110544;28;20983;-85
2022/05/30 09:28:54;;;;;;;9.47;4.20;;;13.50;97.30;;;;;;5110623;28;20416;-86
2022/05/30 09:31:40;;;;;;;7.13;3.20;;;13.60;97.30;;;;;;5111996;28;20496;-86
2022/05/30 09:34:34;;;;;;;5.60;4.00;;;13.70;97.30;;;;;;5110312;28;20925;-86
2022/05/30 09:37:00;;;;;;;8.13;4.00;;;13.70;97.30;;;;;;5111702;28;20462;-86
2022/05/30 09:39:26;;;;;;;6.07;4.23;;;13.70;97.30;;;;;;5110098;28;20441;-86
2022/05/30 09:41:57;;;;;;;11.23;5.20;;;13.60;97.30;;;;;;5110268;28;20671;-86
2022/05/30 09:44:38;;;;;;;5.80;4.27;;;13.50;97.30;;;;;;5110195;28;20209;-86
2022/05/30 09:47:13;;;;;;;11.20;4.90;;;13.50;97.30;;;;;;5110800;28;20447;-86
2022/05/30 09:49:48;;;;;;;5.20;3.60;;;13.60;97.30;;;;;;5110504;28;20430;-86
2022/05/30 09:52:22;;;;;;;7.00;4.00;;;13.60;97.30;;;;;;5112332;28;20415;-86
2022/05/30 09:54:48;;;;;;;10.00;3.30;;;13.60;96.50;;;;;;5110515;28;20446;-86
2022/05/30 09:57:20;;;;;;;8.70;3.70;;;13.60;95.90;;;;;;5110558;28;20953;-87
2022/05/30 09:59:49;;;;;;;9.00;3.40;;;13.70;97.00;;;;;;5110498;28;20289;-87
2022/05/30 10:02:23;;;;;;;6.87;2.90;;;13.90;97.30;;;;;;5110713;28;20816;-87
2022/05/30 10:05:05;;;;;;;6.87;2.90;;;14.10;95.90;;;;;;5110579;28;20419;-87
2022/05/30 10:07:33;;;;;;;4.37;3.33;;;14.10;95.50;;;;;;5110881;28;20443;-87
2022/05/30 10:10:01;;;;;;;3.27;2.40;;;14.00;95.00;;;;;;5110388;28;20423;-87
2022/05/30 10:12:40;;;;;;;4.43;2.70;;;14.00;95.10;;;;;;5111117;28;20423;-88
2022/05/30 10:15:28;;;;;;;12.40;2.80;;;14.00;95.00;;;;;;5109968;28;20552;-86
2022/05/30 10:17:56;;;;;;;5.73;2.60;;;14.10;94.50;;;;;;5110526;28;20500;-85
2022/05/30 10:20:45;;;;;;;5.77;2.67;;;14.20;93.70;;;;;;5110472;28;20419;-85
2022/05/30 10:29:49;;;;;;;8.20;2.70;;;14.40;92.60;;;;;;5097358;28;20469;-86
2022/05/30 10:32:27;;;;;;;6.30;2.47;;;14.50;92.20;;;;;;5089549;28;20409;-86
2022/05/30 10:35:08;;;;;;;8.50;2.90;;;14.60;92.00;;;;;;5090091;28;20408;-84
2022/05/30 10:37:46;;;;;;;4.50;2.60;;;14.60;92.30;;;;;;5088842;28;20459;-84
2022/05/30 10:40:53;;;;;;;5.83;3.07;;;14.50;90.90;;;;;;5109379;28;20476;-85
2022/05/30 10:43:53;;;;;;;4.90;2.40;;;14.60;92.20;;;;;;5108721;28;20800;-84
2022/05/30 10:46:54;;;;;;;6.10;2.93;;;14.70;92.20;;;;;;5109221;28;20446;-85
2022/05/30 10:49:43;;;;;;;6.73;3.03;;;14.80;91.40;;;;;;5108558;28;20419;-85
2022/05/30 10:53:04;;;;;;;4.40;3.00;;;14.90;91.20;;;;;;5109390;28;20434;-84
2022/05/30 10:56:04;;;;;;;5.30;3.20;;;15.00;91.30;;;;;;4991308;28;20416;-85
2022/05/30 10:59:03;;;;;;;4.80;3.20;;;15.10;91.20;;;;;;4919076;28;20427;-84
2022/05/30 11:01:57;;;;;;;4.67;3.77;;;15.20;91.30;;;;;;4978394;28;20412;-85
2022/05/30 11:04:39;;;;;;;6.60;3.00;;;15.20;91.20;;;;;;4991499;28;20495;-84
2022/05/30 11:07:32;;;;;;;7.87;3.43;;;15.20;91.10;;;;;;4990990;28;20438;-84
2022/05/30 11:10:23;;;;;;;5.60;3.63;;;15.20;90.40;;;;;;5051949;28;20419;-84
2022/05/30 11:13:18;;;;;;;7.43;3.77;;;15.20;90.40;;;;;;5088538;28;20408;-84
2022/05/30 11:15:49;;;;;;;4.97;3.03;;;15.20;90.60;;;;;;5027595;28;20469;-84
2022/05/30 11:18:41;;;;;;;6.73;4.27;;;15.20;89.60;;;;;;5073421;28;20779;-85
2022/05/30 11:21:27;;;;;;;8.10;4.37;;;15.20;89.90;;;;;;5088733;28;20412;-85
2022/05/30 11:23:53;;;;;;;6.33;3.23;;;15.20;88.90;;;;;;5088563;28;20470;-85
2022/05/30 11:26:41;;;;;;;7.60;2.87;;;15.30;89.20;;;;;;5088685;28;20464;-85
2022/05/30 11:29:44;;;;;;;6.07;2.70;;;15.30;88.00;;;;;;5088518;28;20419;-84
2022/05/30 11:32:53;;;;;;;5.20;2.90;;;15.30;87.90;;;;;;5088933;28;20804;-85
2022/05/30 11:35:36;;;;;;;6.90;2.73;;;15.50;88.30;;;;;;5089124;28;20483;-85
2022/05/30 11:38:30;;;;;;;3.60;2.47;;;15.70;87.00;;;;;;5091614;28;20495;-84
2022/05/30 11:41:33;;;;;;;3.57;2.40;;;15.70;86.20;;;;;;5091823;28;20423;-84
2022/05/30 11:44:28;;;;;;;3.63;2.00;;;15.60;85.80;;;;;;5092061;28;20503;-84
2022/05/30 11:47:12;;;;;;;6.93;2.30;;;15.60;85.90;;;;;;5091899;28;20563;-85
2022/05/30 11:50:02;;;;;;;5.20;2.20;;;15.50;87.10;;;;;;5093292;28;20702;-84
2022/05/30 11:52:34;;;;;;;2.73;2.53;;;15.60;87.10;;;;;;5091753;28;20412;-84
2022/05/30 11:55:20;;;;;;;5.53;2.63;;;15.60;87.50;;;;;;5091902;28;20405;-84
2022/05/30 11:57:57;;;;;;;6.57;2.83;;;15.80;87.80;;;;;;5091425;28;20491;-84
2022/05/30 12:00:31;;;;;;;6.27;2.77;;;16.10;88.80;;;;;;5091281;28;20416;-84
2022/05/30 12:03:32;;;;;;;5.30;2.50;;;16.30;86.80;;;;;;5091872;28;20789;-84
2022/05/30 12:06:26;;;;;;;4.80;2.30;;;16.30;85.80;;;;;;5091547;28;20444;-85
2022/05/30 12:08:59;;;;;;;9.10;4.10;;;16.10;86.10;;;;;;5083227;28;20472;-85
2022/05/30 12:11:41;;;;;;;5.07;2.70;;;15.90;88.60;;;;;;5071064;28;20833;-84
2022/05/30 12:14:38;;;;;;;7.07;2.90;;;15.50;90.00;;;;;;5071066;28;20471;-83
2022/05/30 12:17:25;;;;;;;8.30;2.80;;;15.20;91.30;;;;;;5070803;28;20469;-83
2022/05/30 12:25:50;;;;;;;6.10;3.10;;;14.30;93.70;;;;;;5072616;28;20504;-83
2022/05/30 12:28:28;;;;;;;7.63;4.90;;;14.10;94.60;;;;;;5071339;28;20757;-84
2022/05/30 12:30:59;;;;;;;5.27;2.93;;;13.90;95.00;;;;;;5057069;28;20415;-86
2022/05/30 12:33:31;;;;;;;5.67;2.90;;;13.70;95.10;;;;;;5071370;28;20517;-85
2022/05/30 12:36:06;;;;;;;5.93;2.63;;;13.60;95.30;;;;;;5071368;28;22358;-85
2022/05/30 12:39:00;;;;;;;11.40;3.10;;;13.40;95.50;;;;;;5077504;28;20447;-84
2022/05/30 12:41:26;;;;;;;5.03;2.90;;;13.40;96.00;;;;;;5093936;28;20452;-84
2022/05/30 12:43:52;;;;;;;9.00;3.37;;;13.30;97.10;;;;;;5093937;28;20421;-84
2022/05/30 12:46:25;;;;;;;5.03;2.93;;;13.30;97.30;;;;;;5093587;28;20237;-83
2022/05/30 12:48:53;;;;;;;5.50;3.23;;;13.20;97.30;;;;;;5092756;28;20427;-85
2022/05/30 12:51:29;;;;;;;8.17;3.53;;;13.30;97.30;;;;;;5086872;28;20551;-84
2022/05/30 12:53:54;;;;;;;6.07;2.70;;;13.30;97.30;;;;;;5053451;28;20437;-85
2022/05/30 12:56:38;;;;;;;8.43;3.70;;;13.30;97.30;;;;;;5053596;28;20470;-84
2022/05/30 12:59:06;;;;;;;8.13;3.37;;;13.40;97.30;;;;;;5061410;28;20186;-84
2022/05/30 13:01:56;;;;;;;3.60;2.93;;;13.40;97.30;;;;;;5066873;28;20446;-85
2022/05/30 13:04:35;;;;;;;6.73;3.13;;;13.50;97.30;;;;;;5053107;28;20489;-84
2022/05/30 13:07:01;;;;;;;4.63;3.27;;;13.70;96.80;;;;;;5052844;28;20468;-84
2022/05/30 13:09:47;;;;;;;3.87;3.03;;;14.00;97.00;;;;;;5064222;28;20425;-85
2022/05/30 13:12:19;;;;;;;4.17;2.97;;;14.50;96.30;;;;;;5072926;28;20417;-85
2022/05/30 13:15:00;;;;;;;3.47;2.63;;;15.10;95.50;;;;;;5077539;28;20468;-84
2022/05/30 13:17:50;;;;;;;3.23;2.70;;;15.50;93.10;;;;;;5093283;28;20460;-84
2022/05/30 13:20:24;;;;;;;4.10;2.20;;;15.70;91.40;;;;;;5082964;28;20466;-85
2022/05/30 13:23:03;;;;;;;4.10;2.90;;;15.70;90.20;;;;;;5091808;28;20569;-84
2022/05/30 13:25:46;;;;;;;4.03;1.90;;;15.70;90.60;;;;;;5091018;28;20890;-84
2022/05/30 13:28:44;;;;;;;5.50;2.40;;;15.90;89.90;;;;;;5090785;28;20408;-85
2022/05/30 13:31:14;;;;;;;5.50;1.97;;;16.10;89.40;;;;;;5091084;28;20405;-84
2022/05/30 13:33:55;;;;;;;2.43;1.80;;;16.30;86.60;;;;;;5091012;28;20801;-85